Time;durP1;ratioP1;P1;durP2;ratioP2;P2;SDS_P1;SDS_P2;PMS_P1;PMS_P2;Temp;Humidity;BMP_temperature;BMP_pressure;BME280_temperature;BME280_humidity;BME280_pressure;Samples;Min_cycle;Max_cycle;Signal;HPM_P1;HPM_P2
2021/07/09 00:01:37;;;;;;;2.75;0.85;;;19.10;85.90;;;;;;5097936;28;20035;-69
2021/07/09 00:04:03;;;;;;;3.38;0.88;;;19.00;86.40;;;;;;5097369;28;20024;-69
2021/07/09 00:06:28;;;;;;;2.13;0.88;;;18.90;84.70;;;;;;5096967;28;20026;-69
2021/07/09 00:08:54;;;;;;;3.03;0.75;;;18.90;84.50;;;;;;5096904;28;20028;-69
2021/07/09 00:11:20;;;;;;;1.17;0.60;;;19.00;80.70;;;;;;5096916;28;20028;-69
2021/07/09 00:13:47;;;;;;;1.33;0.60;;;19.20;81.20;;;;;;5097276;28;20106;-69
2021/07/09 00:16:14;;;;;;;1.10;0.57;;;19.40;79.30;;;;;;5096873;28;20074;-69
2021/07/09 00:18:40;;;;;;;0.93;0.60;;;19.50;79.80;;;;;;5096833;28;20032;-69
2021/07/09 00:21:06;;;;;;;3.60;0.80;;;19.50;79.00;;;;;;5097135;28;20024;-70
2021/07/09 00:23:33;;;;;;;2.22;1.27;;;19.50;77.60;;;;;;5097114;28;20306;-69
2021/07/09 00:25:58;;;;;;;2.50;0.55;;;19.60;78.50;;;;;;5096779;28;20031;-69
2021/07/09 00:28:24;;;;;;;1.95;0.50;;;19.60;78.50;;;;;;5096992;28;20032;-69
2021/07/09 00:30:50;;;;;;;0.93;0.57;;;19.70;78.60;;;;;;5096615;28;20051;-69
2021/07/09 00:33:16;;;;;;;5.97;0.85;;;19.70;78.60;;;;;;5096704;28;20031;-69
2021/07/09 00:35:41;;;;;;;1.92;0.80;;;19.60;81.90;;;;;;5096993;28;20024;-69
2021/07/09 00:38:07;;;;;;;1.38;0.70;;;19.60;80.20;;;;;;5096954;28;20051;-69
2021/07/09 00:40:32;;;;;;;1.10;0.75;;;19.50;78.90;;;;;;5096993;28;20034;-69
2021/07/09 00:42:58;;;;;;;1.17;0.70;;;19.50;78.40;;;;;;5096824;28;20378;-69
2021/07/09 00:45:24;;;;;;;2.85;0.80;;;19.50;77.20;;;;;;5096862;28;20086;-69
2021/07/09 00:47:50;;;;;;;1.40;0.68;;;19.60;77.10;;;;;;5096829;28;20082;-69
2021/07/09 00:50:17;;;;;;;1.73;0.98;;;19.60;77.70;;;;;;5096856;28;20282;-69
2021/07/09 00:52:43;;;;;;;1.00;0.70;;;19.50;77.90;;;;;;5096502;28;20085;-69
2021/07/09 00:55:10;;;;;;;4.88;0.70;;;19.50;79.80;;;;;;5096800;28;20024;-69
2021/07/09 00:57:39;;;;;;;1.90;0.77;;;19.40;78.90;;;;;;5096765;28;20035;-69
2021/07/09 01:00:06;;;;;;;0.80;0.60;;;19.30;78.90;;;;;;5096479;28;20027;-69
2021/07/09 01:02:32;;;;;;;3.25;0.55;;;19.30;78.30;;;;;;5096748;28;20051;-69
2021/07/09 01:04:58;;;;;;;4.13;0.80;;;19.30;79.40;;;;;;5098928;28;20020;-69
2021/07/09 01:07:25;;;;;;;3.58;0.80;;;19.30;79.10;;;;;;5100269;28;20032;-69
2021/07/09 01:09:51;;;;;;;0.90;0.68;;;19.30;80.30;;;;;;5100662;28;20316;-69
2021/07/09 01:12:19;;;;;;;1.13;0.60;;;19.10;82.70;;;;;;5100293;28;20028;-69
2021/07/09 01:14:45;;;;;;;3.42;0.80;;;19.00;81.90;;;;;;5100702;28;20024;-69
2021/07/09 01:17:12;;;;;;;0.90;0.55;;;18.80;82.20;;;;;;5100469;28;20024;-69
2021/07/09 01:19:39;;;;;;;1.63;0.70;;;18.80;82.00;;;;;;5100446;28;20026;-69
2021/07/09 01:22:09;;;;;;;6.93;0.95;;;18.80;81.90;;;;;;5100443;28;20032;-69
2021/07/09 01:24:38;;;;;;;2.80;0.80;;;18.70;82.60;;;;;;5100080;28;20023;-69
2021/07/09 01:27:06;;;;;;;1.33;0.70;;;18.60;82.30;;;;;;5100281;28;20028;-69
2021/07/09 01:29:32;;;;;;;2.60;0.75;;;18.40;83.20;;;;;;5099904;28;20412;-69
2021/07/09 01:31:58;;;;;;;1.02;0.68;;;18.40;82.00;;;;;;5099720;28;20059;-69
2021/07/09 01:34:24;;;;;;;1.67;0.70;;;18.30;83.50;;;;;;5100194;28;20103;-69
2021/07/09 01:36:50;;;;;;;1.50;0.85;;;18.20;85.30;;;;;;5099808;28;20024;-69
2021/07/09 01:39:17;;;;;;;1.67;0.70;;;18.20;85.80;;;;;;5099779;28;20031;-70
2021/07/09 01:41:43;;;;;;;1.05;0.60;;;18.20;85.50;;;;;;5099748;28;20051;-69
2021/07/09 01:44:09;;;;;;;3.78;0.80;;;18.10;84.70;;;;;;5100088;28;20024;-69
2021/07/09 01:46:35;;;;;;;1.88;0.70;;;18.10;84.20;;;;;;5099960;28;20036;-69
2021/07/09 01:49:01;;;;;;;1.95;0.65;;;18.10;86.30;;;;;;5099530;28;20324;-69
2021/07/09 01:51:27;;;;;;;2.70;0.70;;;18.10;86.70;;;;;;5099861;28;20020;-69
2021/07/09 01:53:52;;;;;;;5.47;0.70;;;18.00;86.00;;;;;;5099782;28;20027;-69
2021/07/09 01:56:18;;;;;;;3.17;0.77;;;18.00;85.00;;;;;;5099467;28;20020;-69
2021/07/09 01:58:44;;;;;;;2.60;0.73;;;17.90;84.20;;;;;;5099740;28;20028;-69
2021/07/09 02:01:09;;;;;;;2.65;0.60;;;17.80;84.90;;;;;;5099694;28;20028;-69
2021/07/09 02:03:35;;;;;;;3.17;0.77;;;17.70;85.20;;;;;;5099636;28;20343;-69
2021/07/09 02:06:01;;;;;;;1.10;0.47;;;17.70;86.30;;;;;;5099553;28;20036;-69
2021/07/09 02:08:27;;;;;;;1.25;0.60;;;17.60;85.40;;;;;;5099501;28;20520;-69
2021/07/09 02:10:52;;;;;;;3.72;0.90;;;17.60;85.10;;;;;;5099500;28;20396;-69
2021/07/09 02:13:18;;;;;;;1.02;0.60;;;17.60;85.30;;;;;;5099197;28;20032;-69
2021/07/09 02:15:46;;;;;;;2.92;0.70;;;17.60;84.60;;;;;;5099004;28;20020;-70
2021/07/09 02:18:16;;;;;;;1.42;0.70;;;17.60;83.40;;;;;;5098894;28;20028;-69
2021/07/09 02:20:44;;;;;;;3.47;0.60;;;17.70;83.00;;;;;;5099320;28;20051;-69
2021/07/09 02:23:14;;;;;;;5.68;0.75;;;17.70;82.90;;;;;;5099260;28;20034;-69
2021/07/09 02:25:40;;;;;;;2.08;0.60;;;17.80;82.80;;;;;;5098927;28;20043;-69
2021/07/09 02:28:06;;;;;;;1.13;0.63;;;17.80;83.20;;;;;;5099147;28;20461;-69
2021/07/09 02:30:32;;;;;;;7.63;0.80;;;17.80;83.50;;;;;;5098942;28;20028;-70
2021/07/09 02:32:58;;;;;;;1.00;0.70;;;17.90;83.10;;;;;;5098763;28;20107;-69
2021/07/09 02:35:26;;;;;;;1.63;0.60;;;17.90;82.00;;;;;;5098714;28;20028;-70
2021/07/09 02:37:54;;;;;;;1.40;0.70;;;18.00;81.20;;;;;;5098991;28;20028;-69
2021/07/09 02:40:22;;;;;;;4.03;0.70;;;18.10;82.20;;;;;;5098952;28;20028;-70
2021/07/09 02:42:51;;;;;;;2.67;0.70;;;18.10;82.40;;;;;;5098799;28;20032;-70
2021/07/09 02:45:18;;;;;;;2.92;0.80;;;18.00;83.60;;;;;;5098821;28;20043;-70
2021/07/09 02:47:44;;;;;;;1.48;0.80;;;17.90;82.20;;;;;;5098404;28;20035;-70
2021/07/09 02:50:13;;;;;;;1.38;0.68;;;17.90;82.40;;;;;;5098357;28;20035;-69
2021/07/09 02:52:39;;;;;;;1.40;0.70;;;17.80;83.10;;;;;;5098372;28;20103;-70
2021/07/09 02:55:08;;;;;;;1.08;0.80;;;17.90;83.70;;;;;;5098337;28;20119;-70
2021/07/09 02:57:36;;;;;;;0.90;0.60;;;17.80;83.90;;;;;;5098622;28;20016;-70
2021/07/09 03:00:04;;;;;;;1.90;0.70;;;17.90;83.20;;;;;;5098236;28;20030;-70
2021/07/09 03:02:30;;;;;;;1.23;0.90;;;18.00;83.50;;;;;;5098447;28;20024;-70
2021/07/09 03:04:56;;;;;;;3.63;0.70;;;18.00;83.80;;;;;;5098507;28;20028;-69
2021/07/09 03:07:21;;;;;;;2.88;0.88;;;18.00;84.70;;;;;;5098303;28;20048;-70
2021/07/09 03:09:47;;;;;;;4.50;0.77;;;18.00;84.80;;;;;;5098316;28;20084;-69
2021/07/09 03:12:13;;;;;;;1.52;0.70;;;18.10;83.90;;;;;;5098342;28;20027;-70
2021/07/09 03:14:40;;;;;;;1.38;0.80;;;18.10;82.60;;;;;;5098452;28;20024;-69
2021/07/09 03:17:06;;;;;;;1.65;0.77;;;18.20;82.70;;;;;;5098155;28;20031;-70
2021/07/09 03:19:32;;;;;;;2.17;0.70;;;18.20;82.20;;;;;;5097834;28;20328;-70
2021/07/09 03:21:58;;;;;;;0.80;0.70;;;18.20;83.00;;;;;;5098114;28;20031;-70
2021/07/09 03:24:23;;;;;;;1.35;0.60;;;18.20;82.80;;;;;;5098069;28;20062;-70
2021/07/09 03:26:49;;;;;;;2.28;0.60;;;18.10;83.60;;;;;;5097491;28;20342;-69
2021/07/09 03:29:15;;;;;;;2.90;0.75;;;18.10;82.80;;;;;;5097896;28;20312;-69
2021/07/09 03:31:40;;;;;;;2.05;0.70;;;18.10;83.00;;;;;;5097464;28;20048;-69
2021/07/09 03:34:06;;;;;;;1.50;1.00;;;18.10;82.30;;;;;;5097902;28;20077;-70
2021/07/09 03:36:32;;;;;;;5.13;0.90;;;18.20;83.50;;;;;;5097515;28;20107;-70
2021/07/09 03:38:58;;;;;;;2.65;0.90;;;18.30;83.00;;;;;;5097819;28;20035;-69
2021/07/09 03:41:25;;;;;;;0.77;0.60;;;18.10;83.50;;;;;;5097463;28;20023;-70
2021/07/09 03:43:51;;;;;;;3.13;0.73;;;18.00;84.00;;;;;;5097700;28;20036;-70
2021/07/09 03:46:17;;;;;;;1.40;0.60;;;18.00;83.70;;;;;;5097668;28;20032;-70
2021/07/09 03:48:43;;;;;;;5.40;0.93;;;18.00;83.60;;;;;;5097547;28;20035;-69
2021/07/09 03:51:08;;;;;;;3.92;0.90;;;18.00;83.40;;;;;;5097595;28;20016;-70
2021/07/09 03:53:35;;;;;;;3.03;0.85;;;18.00;82.60;;;;;;5097227;28;20103;-70
2021/07/09 03:56:01;;;;;;;5.88;1.00;;;18.00;83.60;;;;;;5097149;28;20024;-69
2021/07/09 03:58:27;;;;;;;2.85;0.80;;;18.00;84.30;;;;;;5097475;28;20116;-70
2021/07/09 04:00:52;;;;;;;4.30;0.70;;;17.90;84.30;;;;;;5097154;28;20030;-70
2021/07/09 04:03:18;;;;;;;1.73;0.70;;;17.90;85.40;;;;;;5097418;28;20082;-69
2021/07/09 04:05:44;;;;;;;2.03;0.90;;;17.90;85.80;;;;;;5097334;28;20036;-70
2021/07/09 04:08:09;;;;;;;2.78;0.73;;;17.90;85.40;;;;;;5097288;28;20410;-69
2021/07/09 04:10:36;;;;;;;2.25;0.80;;;17.90;84.60;;;;;;5097002;28;20113;-70
2021/07/09 04:13:02;;;;;;;3.25;0.88;;;18.00;84.80;;;;;;5097255;28;20032;-69
2021/07/09 04:15:28;;;;;;;2.08;0.77;;;18.00;85.10;;;;;;5097229;28;20359;-69
2021/07/09 04:17:53;;;;;;;2.67;1.00;;;18.00;84.90;;;;;;5097259;28;20107;-69
2021/07/09 04:20:19;;;;;;;1.23;0.73;;;18.10;87.90;;;;;;5096896;28;20390;-70
2021/07/09 04:22:45;;;;;;;2.88;0.98;;;18.10;86.00;;;;;;5097154;28;20065;-70
2021/07/09 04:25:12;;;;;;;1.63;0.82;;;18.20;85.70;;;;;;5097122;28;20327;-70
2021/07/09 04:27:39;;;;;;;2.83;0.80;;;18.10;87.40;;;;;;5097035;28;20027;-70
2021/07/09 04:30:07;;;;;;;2.33;0.80;;;18.00;86.00;;;;;;5096755;28;20059;-69
2021/07/09 04:32:32;;;;;;;1.55;0.80;;;18.00;87.10;;;;;;5096654;28;20392;-70
2021/07/09 04:34:58;;;;;;;3.47;0.77;;;17.90;85.40;;;;;;5096730;28;20056;-70
2021/07/09 04:37:23;;;;;;;3.03;0.70;;;18.00;85.70;;;;;;5096668;28;20063;-69
2021/07/09 04:39:49;;;;;;;1.73;0.93;;;18.00;86.10;;;;;;5099020;28;20027;-69
2021/07/09 04:42:15;;;;;;;2.83;1.60;;;18.20;86.10;;;;;;5100918;28;20031;-69
2021/07/09 04:44:40;;;;;;;1.15;0.60;;;18.30;85.50;;;;;;5100827;28;20024;-69
2021/07/09 04:47:06;;;;;;;1.10;0.90;;;18.40;84.20;;;;;;5101046;28;20070;-69
2021/07/09 04:49:32;;;;;;;3.65;0.77;;;18.60;82.60;;;;;;5100656;28;20032;-69
2021/07/09 04:51:58;;;;;;;0.70;0.50;;;18.70;80.90;;;;;;5100690;28;20443;-69
2021/07/09 04:54:23;;;;;;;1.00;0.60;;;18.80;80.60;;;;;;5101008;28;20026;-70
2021/07/09 04:56:49;;;;;;;1.30;0.60;;;18.90;80.80;;;;;;5100892;28;20047;-69
2021/07/09 04:59:15;;;;;;;2.35;0.88;;;19.00;81.00;;;;;;5100896;28;20024;-70
2021/07/09 05:01:41;;;;;;;3.22;0.70;;;19.10;80.40;;;;;;5100573;28;20134;-70
2021/07/09 05:04:07;;;;;;;2.15;0.90;;;19.20;78.50;;;;;;5100528;28;20103;-70
2021/07/09 05:06:36;;;;;;;1.35;0.77;;;19.20;80.30;;;;;;5100465;28;20428;-70
2021/07/09 05:09:04;;;;;;;3.70;0.70;;;19.10;80.20;;;;;;5100324;28;20424;-70
2021/07/09 05:11:31;;;;;;;2.40;0.85;;;19.00;81.90;;;;;;5100679;28;20070;-70
2021/07/09 05:13:56;;;;;;;3.42;0.70;;;19.00;83.90;;;;;;5100668;28;20028;-70
2021/07/09 05:16:22;;;;;;;1.95;0.70;;;19.00;84.50;;;;;;5100261;28;20427;-70
2021/07/09 05:18:48;;;;;;;2.15;0.75;;;19.10;81.30;;;;;;5100525;28;20074;-70
2021/07/09 05:21:13;;;;;;;0.90;0.70;;;19.10;83.00;;;;;;5100511;28;20062;-70
2021/07/09 05:23:39;;;;;;;4.00;0.95;;;19.10;83.30;;;;;;5100403;28;20412;-70
2021/07/09 05:26:05;;;;;;;1.48;0.60;;;19.00;84.40;;;;;;5100370;28;20032;-70
2021/07/09 05:28:30;;;;;;;3.55;0.80;;;19.00;84.90;;;;;;5100255;28;20311;-70
2021/07/09 05:30:56;;;;;;;3.35;0.77;;;19.00;86.50;;;;;;5099854;28;20047;-70
2021/07/09 05:33:22;;;;;;;1.42;0.90;;;19.00;86.50;;;;;;5100233;28;20062;-69
2021/07/09 05:35:48;;;;;;;2.08;0.80;;;18.90;83.20;;;;;;5099858;28;20043;-69
2021/07/09 05:38:14;;;;;;;1.95;0.95;;;19.00;86.30;;;;;;5099858;28;20416;-69
2021/07/09 05:40:40;;;;;;;4.97;0.93;;;19.00;85.10;;;;;;5100093;28;20028;-69
2021/07/09 05:43:06;;;;;;;1.92;1.00;;;19.00;86.30;;;;;;5099786;28;20035;-70
2021/07/09 05:45:32;;;;;;;4.00;1.00;;;19.00;85.10;;;;;;5099956;28;20032;-70
2021/07/09 05:47:58;;;;;;;2.38;1.00;;;19.10;84.20;;;;;;5100090;28;20028;-70
2021/07/09 05:50:25;;;;;;;2.65;0.77;;;19.20;85.50;;;;;;5099189;28;20039;-70
2021/07/09 05:52:51;;;;;;;1.30;0.80;;;19.30;83.30;;;;;;5099878;28;20339;-70
2021/07/09 05:55:17;;;;;;;3.33;0.95;;;19.50;85.90;;;;;;5099533;28;20085;-70
2021/07/09 05:57:43;;;;;;;1.65;0.90;;;19.70;82.20;;;;;;5099466;28;20019;-70
2021/07/09 06:00:10;;;;;;;3.10;0.60;;;19.80;83.30;;;;;;5099699;28;20032;-70
2021/07/09 06:02:36;;;;;;;1.27;0.70;;;19.90;81.10;;;;;;5099649;28;20035;-70
2021/07/09 06:05:03;;;;;;;1.92;0.85;;;20.10;82.70;;;;;;5099375;28;20028;-70
2021/07/09 06:07:29;;;;;;;1.15;0.80;;;20.40;79.40;;;;;;5099563;28;20035;-70
2021/07/09 06:09:55;;;;;;;2.90;0.80;;;20.70;81.10;;;;;;5099559;28;20020;-70
2021/07/09 06:12:20;;;;;;;1.17;0.60;;;20.90;79.10;;;;;;5099530;28;20031;-70
2021/07/09 06:14:46;;;;;;;1.50;0.70;;;21.00;76.70;;;;;;5099630;28;20415;-70
2021/07/09 06:17:12;;;;;;;0.90;0.70;;;21.20;78.40;;;;;;5099406;28;20024;-70
2021/07/09 06:19:37;;;;;;;1.45;0.80;;;21.50;79.10;;;;;;5099369;28;20028;-70
2021/07/09 06:22:03;;;;;;;0.98;0.60;;;21.80;73.80;;;;;;5099344;28;20103;-70
2021/07/09 06:24:29;;;;;;;3.28;0.70;;;22.30;72.50;;;;;;5099278;28;20404;-70
2021/07/09 06:26:55;;;;;;;2.60;0.65;;;22.60;74.30;;;;;;5099216;28;20028;-70
2021/07/09 06:29:21;;;;;;;0.70;0.50;;;22.90;71.50;;;;;;5098530;28;20039;-70
2021/07/09 06:31:48;;;;;;;2.47;0.50;;;23.30;71.00;;;;;;5098595;28;20050;-71
2021/07/09 06:34:14;;;;;;;1.92;0.85;;;23.90;72.10;;;;;;5099052;28;20043;-71
2021/07/09 06:36:39;;;;;;;2.30;0.90;;;24.70;69.60;;;;;;5099010;28;20353;-70
2021/07/09 06:39:05;;;;;;;1.98;0.70;;;25.40;68.80;;;;;;5098720;28;20020;-71
2021/07/09 06:41:31;;;;;;;1.25;0.50;;;26.10;67.30;;;;;;5098940;28;20055;-71
2021/07/09 06:43:58;;;;;;;1.23;0.50;;;26.40;65.30;;;;;;5098971;28;20623;-71
2021/07/09 06:46:24;;;;;;;1.70;0.55;;;27.00;65.90;;;;;;5098859;28;20036;-71
2021/07/09 06:48:50;;;;;;;1.08;0.57;;;27.60;63.80;;;;;;5098692;28;20030;-70
2021/07/09 06:51:15;;;;;;;3.25;0.65;;;28.20;63.00;;;;;;5098440;28;20032;-70
2021/07/09 06:53:41;;;;;;;1.58;0.60;;;28.40;60.50;;;;;;5098675;28;20052;-70
2021/07/09 06:56:07;;;;;;;3.85;0.70;;;28.70;59.80;;;;;;5098648;28;20413;-71
2021/07/09 06:58:32;;;;;;;2.05;0.70;;;28.90;61.10;;;;;;5098312;28;20032;-71
2021/07/09 07:00:58;;;;;;;4.25;0.75;;;28.50;61.90;;;;;;5098206;28;20035;-70
2021/07/09 07:03:24;;;;;;;2.90;1.05;;;28.20;62.90;;;;;;5097415;28;20099;-71
2021/07/09 07:05:49;;;;;;;1.52;0.80;;;28.00;63.10;;;;;;5098456;28;20036;-71
2021/07/09 07:08:29;;;;;;;5.55;0.98;;;27.90;64.30;;;;;;5098355;28;20412;-71
2021/07/09 07:10:56;;;;;;;3.03;1.17;;;27.90;64.50;;;;;;5098113;28;20028;-71
2021/07/09 07:13:24;;;;;;;3.92;1.90;;;27.90;64.70;;;;;;5098070;28;20405;-71
2021/07/09 07:15:50;;;;;;;3.17;1.70;;;28.00;65.10;;;;;;5097933;28;20029;-71
2021/07/09 07:18:16;;;;;;;2.28;1.98;;;28.20;66.30;;;;;;5098204;28;20024;-71
2021/07/09 07:20:44;;;;;;;5.63;2.03;;;28.30;66.20;;;;;;5097875;28;20028;-71
2021/07/09 07:23:11;;;;;;;8.45;2.20;;;28.50;65.80;;;;;;5098088;28;20028;-70
2021/07/09 07:25:38;;;;;;;3.60;1.70;;;28.50;66.50;;;;;;5098635;28;20030;-71
2021/07/09 07:28:05;;;;;;;2.30;1.60;;;28.60;66.30;;;;;;5097967;28;20018;-71
2021/07/09 07:30:31;;;;;;;3.78;1.80;;;29.10;65.50;;;;;;5097621;28;20021;-71
2021/07/09 07:32:56;;;;;;;5.18;2.00;;;29.20;65.20;;;;;;5097488;28;20055;-71
2021/07/09 07:35:22;;;;;;;4.22;1.83;;;29.40;64.30;;;;;;5097573;28;20025;-71
2021/07/09 07:37:49;;;;;;;4.50;1.95;;;29.10;64.50;;;;;;5097886;28;20024;-71
2021/07/09 07:40:15;;;;;;;2.65;2.20;;;29.30;66.10;;;;;;5097540;28;20036;-71
2021/07/09 07:42:41;;;;;;;3.20;2.00;;;29.50;64.80;;;;;;5097429;28;20047;-71
2021/07/09 07:45:08;;;;;;;2.55;1.85;;;29.40;64.80;;;;;;5097394;28;20081;-70
2021/07/09 07:47:33;;;;;;;6.80;2.00;;;29.50;65.00;;;;;;5097317;28;20028;-71
2021/07/09 07:50:00;;;;;;;2.38;1.70;;;29.60;65.50;;;;;;5097649;28;20048;-71
2021/07/09 07:52:26;;;;;;;4.43;2.50;;;29.80;66.00;;;;;;5097667;28;20031;-71
2021/07/09 07:54:51;;;;;;;4.85;2.80;;;30.00;64.20;;;;;;5097314;28;20035;-71
2021/07/09 07:57:18;;;;;;;3.80;3.15;;;30.20;63.80;;;;;;5097225;28;20030;-71
2021/07/09 07:59:45;;;;;;;3.60;2.78;;;30.00;64.90;;;;;;5097197;28;20032;-71
2021/07/09 08:02:11;;;;;;;4.30;3.50;;;29.50;65.20;;;;;;5097155;28;20046;-71
2021/07/09 08:04:37;;;;;;;4.97;4.00;;;29.00;65.70;;;;;;5097487;28;20089;-71
2021/07/09 08:07:03;;;;;;;7.50;4.38;;;29.00;67.00;;;;;;5097367;28;20372;-71
2021/07/09 08:09:29;;;;;;;5.22;3.67;;;29.10;67.60;;;;;;5096936;28;20035;-71
2021/07/09 08:11:56;;;;;;;4.82;4.03;;;29.30;65.80;;;;;;5097023;28;20016;-71
2021/07/09 08:14:22;;;;;;;5.85;4.25;;;29.50;65.20;;;;;;5097254;28;20161;-71
2021/07/09 08:16:51;;;;;;;4.72;3.88;;;29.60;65.00;;;;;;5097188;28;20111;-71
2021/07/09 08:19:21;;;;;;;6.25;4.68;;;29.50;66.80;;;;;;5096946;28;20475;-71
2021/07/09 08:21:47;;;;;;;6.90;4.53;;;29.60;64.70;;;;;;5097228;28;20031;-71
2021/07/09 08:24:16;;;;;;;5.93;4.70;;;29.50;65.80;;;;;;5097141;28;20297;-71
2021/07/09 08:26:43;;;;;;;6.68;4.63;;;29.30;65.80;;;;;;5096794;28;20024;-71
2021/07/09 08:29:09;;;;;;;7.13;4.65;;;29.50;66.30;;;;;;5096685;28;20032;-71
2021/07/09 08:31:35;;;;;;;5.68;4.88;;;29.40;66.60;;;;;;5096829;28;20055;-70
2021/07/09 08:34:01;;;;;;;5.25;4.57;;;29.30;65.30;;;;;;5097031;28;20024;-71
2021/07/09 08:36:27;;;;;;;5.43;4.90;;;29.20;68.60;;;;;;5097046;28;20117;-71
2021/07/09 08:38:53;;;;;;;5.28;4.38;;;29.50;64.40;;;;;;5096698;28;20048;-71
2021/07/09 08:41:19;;;;;;;5.72;4.50;;;29.90;65.70;;;;;;5096714;28;20110;-71
2021/07/09 08:43:45;;;;;;;7.22;4.38;;;29.90;64.20;;;;;;5097011;28;20312;-71
2021/07/09 08:46:11;;;;;;;8.52;4.45;;;30.10;66.00;;;;;;5096947;28;20120;-71
2021/07/09 08:48:37;;;;;;;6.78;4.50;;;30.10;62.80;;;;;;5096834;28;20024;-71
2021/07/09 08:51:04;;;;;;;4.82;4.40;;;29.90;63.60;;;;;;5096561;28;20031;-71
2021/07/09 08:53:30;;;;;;;7.85;4.60;;;29.70;64.10;;;;;;5096864;28;20028;-71
2021/07/09 08:55:56;;;;;;;5.50;4.45;;;29.70;64.20;;;;;;5096514;28;20024;-71
2021/07/09 08:58:22;;;;;;;4.07;2.65;;;29.80;64.20;;;;;;5096870;28;20024;-71
2021/07/09 09:00:47;;;;;;;5.78;3.78;;;30.40;59.20;;;;;;5096847;28;20039;-71
2021/07/09 09:03:24;;;;;;;5.35;3.88;;;30.40;60.90;;;;;;5096460;28;20027;-71
2021/07/09 09:05:50;;;;;;;4.22;3.08;;;30.40;61.00;;;;;;5096404;28;20040;-71
2021/07/09 09:08:18;;;;;;;8.43;3.72;;;30.70;59.10;;;;;;5096337;28;20449;-71
2021/07/09 09:10:48;;;;;;;6.45;4.95;;;31.00;61.30;;;;;;5096444;28;20107;-69
2021/07/09 09:13:18;;;;;;;4.50;4.10;;;30.90;61.60;;;;;;5096460;28;20411;-69
2021/07/09 09:15:58;;;;;;;7.30;4.25;;;30.90;62.70;;;;;;5096663;28;20032;-69
2021/07/09 09:18:30;;;;;;;6.35;4.28;;;31.00;59.90;;;;;;5096357;28;20031;-70
2021/07/09 09:21:03;;;;;;;4.72;4.22;;;30.90;60.40;;;;;;5096691;28;20055;-70
2021/07/09 09:23:31;;;;;;;6.10;3.92;;;30.80;62.40;;;;;;5096283;28;20024;-70
2021/07/09 09:25:57;;;;;;;6.18;3.75;;;31.00;61.60;;;;;;5098319;28;20024;-70
2021/07/09 09:28:23;;;;;;;5.43;4.80;;;31.10;60.90;;;;;;5100038;28;20042;-70
2021/07/09 09:30:52;;;;;;;7.65;4.00;;;31.10;60.20;;;;;;5099901;28;20413;-70
2021/07/09 09:33:19;;;;;;;5.57;3.45;;;31.20;62.50;;;;;;5099997;28;20427;-70
2021/07/09 09:35:48;;;;;;;8.13;3.85;;;31.50;59.90;;;;;;5099919;28;20020;-70
2021/07/09 09:38:18;;;;;;;8.88;4.20;;;31.80;61.30;;;;;;5100225;28;20454;-70
2021/07/09 09:40:46;;;;;;;6.32;4.13;;;31.70;60.30;;;;;;5099839;28;20039;-69
2021/07/09 09:43:14;;;;;;;4.65;3.60;;;31.80;62.60;;;;;;5100102;28;20061;-70
2021/07/09 09:45:40;;;;;;;5.68;3.63;;;31.80;60.70;;;;;;5099716;28;20444;-70
2021/07/09 09:48:08;;;;;;;6.57;3.65;;;32.10;59.30;;;;;;5099979;28;20035;-70
2021/07/09 09:50:48;;;;;;;5.82;4.10;;;32.20;59.40;;;;;;5099976;28;20082;-69
2021/07/09 09:53:16;;;;;;;5.20;3.42;;;32.20;59.40;;;;;;5099952;28;20016;-69
2021/07/09 09:55:42;;;;;;;3.92;3.50;;;31.60;57.60;;;;;;5100182;28;20032;-69
2021/07/09 09:58:09;;;;;;;5.18;3.63;;;30.40;61.10;;;;;;5099511;28;20048;-69
2021/07/09 10:00:35;;;;;;;6.78;3.70;;;29.30;66.70;;;;;;5099825;28;20032;-69
2021/07/09 10:03:05;;;;;;;9.50;5.05;;;28.30;69.50;;;;;;5099424;28;20054;-70
2021/07/09 10:05:42;;;;;;;8.02;5.68;;;27.50;70.40;;;;;;5099389;28;20323;-69
2021/07/09 10:08:24;;;;;;;6.68;4.53;;;26.70;71.20;;;;;;5099604;28;20316;-70
2021/07/09 10:10:50;;;;;;;6.57;5.20;;;26.20;73.10;;;;;;5099278;28;20103;-70
2021/07/09 10:13:19;;;;;;;7.65;5.80;;;25.90;73.00;;;;;;5099574;28;20039;-69
2021/07/09 10:15:47;;;;;;;7.03;6.32;;;25.70;74.70;;;;;;5099499;28;20056;-70
2021/07/09 10:18:15;;;;;;;6.28;5.68;;;25.40;75.40;;;;;;5097594;28;20028;-70
2021/07/09 10:20:42;;;;;;;8.10;6.60;;;25.20;77.20;;;;;;5108255;28;20320;-70
2021/07/09 10:23:10;;;;;;;8.77;6.32;;;25.10;75.60;;;;;;5119428;28;20035;-70
2021/07/09 10:25:37;;;;;;;9.98;6.60;;;24.90;76.70;;;;;;5119405;28;20027;-69
2021/07/09 10:28:08;;;;;;;7.40;6.13;;;25.30;75.80;;;;;;5119553;28;20027;-70
2021/07/09 10:30:44;;;;;;;8.45;6.40;;;26.70;76.40;;;;;;5119633;28;20031;-70
2021/07/09 10:33:36;;;;;;;6.97;5.63;;;27.90;71.50;;;;;;5098891;28;20478;-70
2021/07/09 10:36:07;;;;;;;5.90;5.05;;;29.20;68.00;;;;;;5098579;28;20021;-70
2021/07/09 10:38:39;;;;;;;7.60;5.10;;;30.00;66.50;;;;;;5098397;28;20020;-70
2021/07/09 10:41:19;;;;;;;9.10;4.10;;;30.30;63.50;;;;;;5098714;28;20024;-70
2021/07/09 10:44:17;;;;;;;5.80;4.50;;;30.00;67.80;;;;;;5099045;28;20392;-70
2021/07/09 10:46:43;;;;;;;5.70;4.60;;;30.10;65.20;;;;;;5098518;28;20032;-70
2021/07/09 10:49:10;;;;;;;8.40;4.80;;;30.60;62.80;;;;;;5093169;28;20491;-70
2021/07/09 10:51:52;;;;;;;7.65;6.53;;;31.00;61.40;;;;;;5089507;28;20024;-70
2021/07/09 10:54:36;;;;;;;5.72;4.85;;;31.40;59.70;;;;;;5098670;28;20312;-70
2021/07/09 10:57:21;;;;;;;7.07;4.97;;;30.40;62.30;;;;;;5098723;28;20342;-70
2021/07/09 11:00:21;;;;;;;7.70;5.50;;;29.10;64.70;;;;;;5098955;28;20031;-70
2021/07/09 11:03:04;;;;;;;10.65;6.07;;;28.40;65.90;;;;;;5098578;28;20062;-70
2021/07/09 11:05:42;;;;;;;6.10;5.50;;;27.90;68.10;;;;;;5098500;28;20028;-70
2021/07/09 11:08:37;;;;;;;6.95;4.35;;;27.40;70.70;;;;;;5098378;28;20105;-70
2021/07/09 11:11:13;;;;;;;4.95;4.07;;;27.10;71.70;;;;;;5083253;28;20028;-70
2021/07/09 11:13:42;;;;;;;3.83;2.97;;;26.90;72.70;;;;;;5098156;28;20020;-70
2021/07/09 11:16:22;;;;;;;5.07;4.60;;;26.60;74.70;;;;;;5097979;28;20048;-70
2021/07/09 11:19:03;;;;;;;4.43;3.33;;;26.20;70.60;;;;;;5097924;28;20428;-70
2021/07/09 11:21:32;;;;;;;8.23;4.90;;;26.00;74.30;;;;;;5098232;28;20324;-70
2021/07/09 11:24:12;;;;;;;7.97;4.20;;;25.90;73.10;;;;;;5098108;28;20028;-70
2021/07/09 11:26:43;;;;;;;4.97;4.03;;;25.70;73.90;;;;;;5098045;28;20107;-70
2021/07/09 11:29:47;;;;;;;5.57;3.88;;;25.50;72.40;;;;;;5098003;28;20020;-70
2021/07/09 11:32:18;;;;;;;5.97;3.70;;;25.80;72.30;;;;;;5111094;28;20044;-70
2021/07/09 11:34:52;;;;;;;6.05;3.03;;;26.60;74.10;;;;;;5118017;28;20012;-70
2021/07/09 11:37:24;;;;;;;5.50;3.20;;;27.50;74.60;;;;;;5117932;28;20046;-70
2021/07/09 11:40:02;;;;;;;5.28;3.88;;;28.30;66.60;;;;;;5117899;28;20435;-70
2021/07/09 11:42:32;;;;;;;9.18;4.18;;;28.70;69.50;;;;;;5118192;28;20058;-70
2021/07/09 11:45:05;;;;;;;4.90;2.60;;;28.70;62.90;;;;;;5118387;28;20027;-70
2021/07/09 11:47:32;;;;;;;3.10;2.65;;;28.20;66.10;;;;;;5117920;28;20043;-70
2021/07/09 11:50:01;;;;;;;4.07;3.13;;;27.80;66.10;;;;;;5117621;28;20446;-70
2021/07/09 11:52:27;;;;;;;3.67;2.78;;;27.20;68.50;;;;;;5118057;28;20324;-70
2021/07/09 11:54:55;;;;;;;7.53;3.67;;;26.60;72.00;;;;;;5118014;28;20027;-70
2021/07/09 11:57:24;;;;;;;5.30;4.78;;;26.20;72.80;;;;;;5117888;28;20308;-70
2021/07/09 11:59:51;;;;;;;6.90;4.50;;;25.80;70.30;;;;;;5117558;28;20089;-70
2021/07/09 12:02:29;;;;;;;7.22;4.38;;;25.60;73.00;;;;;;5117840;28;20015;-70
2021/07/09 12:05:06;;;;;;;4.47;3.60;;;25.70;73.00;;;;;;5117835;28;20028;-70
2021/07/09 12:07:39;;;;;;;6.55;3.33;;;26.40;73.90;;;;;;5118051;28;20172;-70
2021/07/09 12:10:11;;;;;;;6.53;3.50;;;27.10;73.30;;;;;;5117717;28;20100;-70
2021/07/09 12:12:45;;;;;;;5.13;4.40;;;27.70;73.50;;;;;;5117699;28;20039;-70
2021/07/09 12:15:13;;;;;;;4.90;3.57;;;28.00;68.30;;;;;;5117350;28;20446;-70
2021/07/09 12:17:48;;;;;;;4.68;3.53;;;27.80;65.80;;;;;;5117611;28;20315;-70
2021/07/09 12:20:15;;;;;;;3.72;2.28;;;27.30;69.40;;;;;;5117634;28;20023;-70
2021/07/09 12:22:42;;;;;;;3.72;2.30;;;26.90;72.50;;;;;;5117540;28;20024;-70
2021/07/09 12:25:19;;;;;;;3.67;3.28;;;26.50;72.50;;;;;;5117458;28;20311;-70
2021/07/09 12:27:46;;;;;;;5.20;2.92;;;26.20;68.90;;;;;;5117190;28;20023;-70
2021/07/09 12:30:21;;;;;;;4.85;2.90;;;26.00;73.40;;;;;;5117423;28;20031;-70
2021/07/09 12:32:56;;;;;;;2.40;1.95;;;26.20;75.00;;;;;;5117045;28;20046;-70
2021/07/09 12:35:22;;;;;;;;;;;26.50;70.30;;;;;;5117795;28;20111;-70
2021/07/09 12:37:56;;;;;;;4.38;1.55;;;26.70;71.10;;;;;;5117435;28;19908;-70
2021/07/09 12:40:28;;;;;;;1.92;0.90;;;26.90;71.50;;;;;;5117417;28;20027;-70
2021/07/09 12:43:17;;;;;;;2.58;1.38;;;27.20;71.30;;;;;;5117321;28;20384;-70
2021/07/09 12:45:53;;;;;;;1.33;1.15;;;27.30;67.40;;;;;;5116970;28;20031;-70
2021/07/09 12:48:28;;;;;;;1.83;1.55;;;27.30;67.00;;;;;;5117274;28;20028;-70
2021/07/09 12:50:54;;;;;;;1.75;1.15;;;27.40;66.60;;;;;;5117293;28;20099;-70
2021/07/09 12:53:22;;;;;;;3.25;1.10;;;27.30;70.80;;;;;;5117191;28;20375;-70